ADDS METAR Data INFO
IDs: Format: Raw Decoded Include TAF

Data at: 0733 UTC 18 Oct 2017

KTOB 180713Z AUTO 18009KT 10SM CLR 11/06 A2994 RMK AO2
KTOB 180654Z AUTO 17009KT 10SM CLR 11/06 A2994 RMK AO2
KTOB 180633Z AUTO 19011KT 10SM CLR 12/06 A2994 RMK AO2
KTOB 180613Z AUTO 18010KT 10SM CLR 12/06 A2995 RMK AO2
KTOB 180553Z AUTO 18010KT 10SM CLR 12/06 A2995 RMK AO2
KTOB 180533Z AUTO 18010KT 10SM CLR 12/06 A2995 RMK AO2
KTOB 180514Z AUTO 18010KT 10SM CLR 12/06 A2996 RMK AO2
KTOB 180453Z AUTO 18010KT 10SM CLR 13/06 A2996 RMK AO2
KTOB 180433Z AUTO 18009KT 10SM CLR 13/06 A2997 RMK AO2
KTOB 180413Z AUTO 18009KT 10SM CLR 13/06 A2997 RMK AO2
KTOB 180353Z AUTO 19011KT 10SM CLR 14/06 A2997 RMK AO2
KTOB 180334Z AUTO 19012KT 10SM CLR 14/06 A2997 RMK AO2
KTOB 180313Z AUTO 18009KT 10SM CLR 14/06 A2997 RMK AO2
KTOB 180253Z AUTO 18010KT 10SM CLR 14/06 A2997 RMK AO2
KTOB 180234Z AUTO 18007KT 10SM CLR 13/06 A2997 RMK AO2
KTOB 180213Z AUTO 18007KT 10SM CLR 14/06 A2997 RMK AO2
KTOB 180153Z AUTO 18007KT 10SM CLR 14/06 A2998 RMK AO2
KTOB 180134Z AUTO 18007KT 10SM CLR 14/07 A2998 RMK AO2
KTOB 180113Z AUTO 18007KT 10SM CLR 13/07 A2998 RMK AO2
KTOB 180053Z AUTO 17006KT 10SM CLR 13/06 A2998 RMK AO2
KTOB 180034Z AUTO 17006KT 10SM CLR 13/06 A2998 RMK AO2
KTOB 180013Z AUTO 18005KT 10SM CLR 14/07 A2998 RMK AO2
KTOB 172353Z AUTO 18005KT 10SM CLR 14/07 A2998 RMK AO2
KTOB 172334Z AUTO 18005KT 10SM CLR 16/07 A2998 RMK AO2
KTOB 172313Z AUTO 18004KT 10SM CLR 18/06 A2998 RMK AO2
KTOB 172253Z AUTO 19007KT 10SM CLR 20/05 A2997 RMK AO2
KTOB 172234Z AUTO 18007KT 10SM CLR 21/04 A2997 RMK AO2
KTOB 172213Z AUTO 18009KT 10SM CLR 22/04 A2997 RMK AO2
KTOB 172153Z AUTO 19011KT 10SM CLR 22/04 A2997 RMK AO2
KTOB 172133Z AUTO 19009KT 10SM CLR 23/03 A2997 RMK AO2
KTOB 172113Z AUTO 19009KT 10SM CLR 23/04 A2997 RMK AO2
KTOB 172053Z AUTO 20010KT 10SM CLR 23/03 A2998 RMK AO2
KTOB 172033Z AUTO 23007KT 10SM CLR 23/03 A2998 RMK AO2
KTOB 172013Z AUTO 21008KT 10SM CLR 23/03 A2998 RMK AO2
KTOB 171953Z AUTO 22010KT 10SM CLR 23/03 A2999 RMK AO2
KTOB 171933Z AUTO 21010G14KT 10SM CLR 23/04 A3000 RMK AO2
KTOB 171913Z AUTO 20009KT 10SM CLR 23/04 A3000 RMK AO2
KTOB 171854Z AUTO 20007KT 160V220 10SM CLR 22/04 A3001 RMK AO2
KTOB 171833Z AUTO 20009KT 10SM CLR 22/04 A3002 RMK AO2
KTOB 171813Z AUTO 21007KT 170V240 10SM CLR 21/04 A3003 RMK AO2
KTOB 171754Z AUTO 21009KT 10SM CLR 21/04 A3004 RMK AO2
KTOB 171733Z AUTO 22006KT 10SM CLR 19/04 A3005 RMK AO2
KTOB 171713Z AUTO 21003KT 10SM CLR 19/05 A3005 RMK AO2
KTOB 171653Z AUTO 22007KT 10SM CLR 18/05 A3005 RMK AO2
KTOB 171633Z AUTO 22006KT 10SM CLR 17/06 A3006 RMK AO2
KTOB 171613Z AUTO 21007KT 10SM CLR 16/06 A3006 RMK AO2
KTOB 171553Z AUTO 22007KT 10SM CLR 15/06 A3006 RMK AO2
KTOB 171533Z AUTO 24007KT 10SM CLR 14/06 A3006 RMK AO2
KTOB 171514Z AUTO 22007KT 10SM CLR 13/05 A3005 RMK AO2
KTOB 171453Z AUTO 22007KT 10SM CLR 12/05 A3004 RMK AO2
KTOB 171433Z AUTO 21008KT 10SM CLR 12/05 A3004 RMK AO2
KTOB 171414Z AUTO 21007KT 10SM CLR 11/04 A3004 RMK AO2
KTOB 171353Z AUTO 21008KT 10SM CLR 09/04 A3004 RMK AO2
KTOB 171333Z AUTO 20007KT 10SM CLR 09/04 A3004 RMK AO2
KTOB 171314Z AUTO 20007KT 10SM CLR 08/04 A3003 RMK AO2
KTOB 171253Z AUTO 21006KT 10SM CLR 07/04 A3004 RMK AO2
KTOB 171233Z AUTO 22006KT 10SM CLR 07/03 A3004 RMK AO2
KTOB 171214Z AUTO 23006KT 10SM CLR 07/04 A3003 RMK AO2
KTOB 171153Z AUTO 21006KT 10SM CLR 07/04 A3003 RMK AO2
KTOB 171133Z AUTO 21007KT 10SM CLR 08/04 A3003 RMK AO2
KTOB 171114Z AUTO 21006KT 10SM CLR 08/04 A3003 RMK AO2
KTOB 171053Z AUTO 21006KT 10SM CLR 08/04 A3003 RMK AO2
KTOB 171033Z AUTO 22008KT 10SM CLR 08/04 A3003 RMK AO2
KTOB 171014Z AUTO 22006KT 10SM CLR 08/04 A3003 RMK AO2
KTOB 170953Z AUTO 23007KT 10SM CLR 09/04 A3002 RMK AO2
KTOB 170933Z AUTO 22008KT 10SM CLR 09/04 A3002 RMK AO2
KTOB 170914Z AUTO 22008KT 10SM CLR 09/04 A3002 RMK AO2
KTOB 170853Z AUTO 22008KT 10SM CLR 09/04 A3002 RMK AO2
KTOB 170833Z AUTO 22008KT 10SM CLR 09/04 A3002 RMK AO2
KTOB 170814Z AUTO 22008KT 10SM CLR 09/04 A3002 RMK AO2
KTOB 170753Z AUTO 21008KT 10SM CLR 09/04 A3002 RMK AO2
KTOB 170733Z AUTO 22007KT 10SM CLR 10/04 A3002 RMK AO2
KTOB 170714Z AUTO 21008KT 10SM CLR 09/03 A3002 RMK AO2
KTOB 170653Z AUTO 22008KT 10SM CLR 10/03 A3001 RMK AO2
KTOB 170633Z AUTO 21010G15KT 10SM CLR 10/03 A3001 RMK AO2
KTOB 170614Z AUTO 21009KT 10SM CLR 11/03 A3001 RMK AO2
KTOB 170553Z AUTO 21012G16KT 10SM CLR 11/03 A3000 RMK AO2
KTOB 170533Z AUTO 21013KT 10SM CLR 11/03 A3001 RMK AO2
KTOB 170513Z AUTO 20011G17KT 10SM CLR 12/03 A3000 RMK AO2
KTOB 170453Z AUTO 20012KT 10SM CLR 12/03 A3001 RMK AO2
KTOB 170433Z AUTO 20014G19KT 10SM CLR 12/03 A3001 RMK AO2
KTOB 170413Z AUTO 20015G19KT 10SM CLR 12/03 A3000 RMK AO2
KTOB 170353Z AUTO 20013G19KT 10SM CLR 13/03 A3001 RMK AO2
KTOB 170333Z AUTO 20012KT 10SM CLR 12/03 A3002 RMK AO2
KTOB 170313Z AUTO 20012G17KT 10SM CLR 13/03 A3002 RMK AO2
KTOB 170253Z AUTO 20012G18KT 10SM CLR 13/02 A3002 RMK AO2
KTOB 170234Z AUTO 19013KT 10SM CLR 13/02 A3003 RMK AO2
KTOB 170213Z AUTO 19012G17KT 10SM CLR 13/02 A3003 RMK AO2
KTOB 170153Z AUTO 19013G17KT 10SM CLR 13/02 A3003 RMK AO2
KTOB 170134Z AUTO 18010KT 10SM CLR 13/02 A3004 RMK AO2
KTOB 170113Z AUTO 19011KT 10SM CLR 13/02 A3005 RMK AO2
KTOB 170053Z AUTO 19012KT 10SM CLR 13/02 A3005 RMK AO2
KTOB 170034Z AUTO 18009KT 10SM CLR 13/02 A3005 RMK AO2
KTOB 170013Z AUTO 18008KT 10SM SCT090 13/02 A3005 RMK AO2
KTOB 162353Z AUTO 18007KT 10SM CLR 13/03 A3006 RMK AO2
KTOB 162333Z AUTO 18007KT 10SM CLR 13/02 A3006 RMK AO2
KTOB 162313Z AUTO 19007KT 10SM CLR 15/02 A3006 RMK AO2
KTOB 162253Z AUTO 20007KT 10SM CLR 17/01 A3007 RMK AO2
KTOB 162233Z AUTO 20010KT 10SM CLR 18/00 A3008 RMK AO2
KTOB 162213Z AUTO 21010G17KT 10SM CLR 18/00 A3008 RMK AO2
KTOB 162153Z AUTO 21008KT 10SM CLR 18/00 A3009 RMK AO2
KTOB 162133Z AUTO 20010G15KT 10SM CLR 18/01 A3009 RMK AO2
KTOB 162113Z AUTO 22012G18KT 10SM CLR 18/00 A3010 RMK AO2
KTOB 162053Z AUTO 22014G20KT 10SM CLR 18/M01 A3011 RMK AO2
KTOB 162033Z AUTO 22014G18KT 10SM CLR 18/M01 A3012 RMK AO2
KTOB 162013Z AUTO 21013G18KT 10SM CLR 18/M01 A3012 RMK AO2
KTOB 161954Z AUTO 21015G21KT 10SM CLR 18/M01 A3013 RMK AO2